Time;durP1;ratioP1;P1;durP2;ratioP2;P2;SDS_P1;SDS_P2;PMS_P1;PMS_P2;Temp;Humidity;BMP_temperature;BMP_pressure;BME280_temperature;BME280_humidity;BME280_pressure;Samples;Min_cycle;Max_cycle;Signal;HPM_P1;HPM_P2
2021/12/31 00:00:18;;;;;;;0.60;0.60;;;12.80;99.90;;;;;;4445751;32;20065;-68
2021/12/31 00:02:43;;;;;;;0.75;0.50;;;12.80;99.90;;;;;;4443986;32;20078;-68
2021/12/31 00:05:09;;;;;;;0.50;0.50;;;12.80;99.90;;;;;;4443767;32;20102;-68
2021/12/31 00:07:36;;;;;;;0.45;0.45;;;12.80;99.90;;;;;;4445597;32;20069;-68
2021/12/31 00:10:02;;;;;;;0.40;0.40;;;12.80;99.90;;;;;;4444934;32;20117;-68
2021/12/31 00:12:28;;;;;;;0.40;0.40;;;12.90;99.90;;;;;;4444870;32;20061;-68
2021/12/31 00:14:54;;;;;;;0.68;0.50;;;12.80;99.90;;;;;;4444311;32;20426;-68
2021/12/31 00:17:20;;;;;;;0.50;0.50;;;12.80;99.90;;;;;;4441985;32;20073;-68
2021/12/31 00:19:47;;;;;;;0.60;0.60;;;12.90;99.90;;;;;;4444285;32;20073;-68
2021/12/31 00:22:45;;;;;;;0.60;0.60;;;12.90;99.90;;;;;;4444826;32;20053;-68
2021/12/31 00:24:58;;;;;;;0.52;0.50;;;12.90;99.90;;;;;;4432382;32;20565;-68
2021/12/31 00:27:24;;;;;;;0.45;0.45;;;12.90;99.90;;;;;;4444293;32;20402;-68
2021/12/31 00:29:50;;;;;;;0.40;0.40;;;12.90;99.90;;;;;;4444914;32;20062;-68
2021/12/31 00:32:15;;;;;;;0.40;0.40;;;12.90;99.90;;;;;;4443758;32;20065;-68
2021/12/31 00:34:41;;;;;;;0.40;0.40;;;12.90;99.90;;;;;;4444180;32;20098;-68
2021/12/31 00:37:06;;;;;;;0.40;0.40;;;13.00;99.90;;;;;;4445805;32;20519;-68
2021/12/31 00:39:32;;;;;;;0.68;0.68;;;13.00;99.90;;;;;;4443399;32;20068;-68
2021/12/31 00:41:57;;;;;;;0.47;0.47;;;12.90;99.90;;;;;;4445818;32;20118;-68
2021/12/31 00:44:25;;;;;;;0.40;0.40;;;12.90;99.90;;;;;;4445011;32;20537;-68
2021/12/31 00:46:50;;;;;;;0.40;0.40;;;13.00;99.90;;;;;;4443649;32;20119;-68
2021/12/31 00:49:16;;;;;;;0.57;0.50;;;12.90;99.90;;;;;;4443970;32;20092;-67
2021/12/31 00:51:41;;;;;;;0.82;0.80;;;12.90;99.90;;;;;;4444670;32;20057;-67
2021/12/31 00:54:08;;;;;;;0.45;0.45;;;12.90;99.90;;;;;;4443490;32;20168;-67
2021/12/31 00:56:33;;;;;;;0.43;0.43;;;12.90;99.90;;;;;;4444396;32;20072;-68
2021/12/31 00:59:00;;;;;;;0.60;0.60;;;12.90;99.90;;;;;;4443062;32;20127;-68
2021/12/31 01:01:26;;;;;;;0.50;0.50;;;12.90;99.90;;;;;;4443519;32;20069;-67
2021/12/31 01:03:52;;;;;;;2.05;0.60;;;12.90;99.90;;;;;;4444273;32;20116;-69
2021/12/31 01:06:18;;;;;;;0.52;0.52;;;13.00;99.90;;;;;;4444474;32;20506;-67
2021/12/31 01:08:43;;;;;;;0.30;0.30;;;12.90;99.90;;;;;;4443671;32;20072;-68
2021/12/31 01:11:10;;;;;;;0.57;0.57;;;12.90;99.90;;;;;;4444034;32;20066;-68
2021/12/31 01:13:49;;;;;;;0.50;0.50;;;12.90;99.90;;;;;;4443831;32;20535;-69
2021/12/31 01:16:16;;;;;;;1.23;0.60;;;12.90;99.90;;;;;;4444236;32;20084;-67
2021/12/31 01:21:25;;;;;;;0.55;0.55;;;13.00;99.90;;;;;;4443276;32;20125;-68
2021/12/31 01:23:51;;;;;;;0.70;0.70;;;13.00;99.90;;;;;;4444407;32;20635;-68
2021/12/31 01:26:18;;;;;;;0.50;0.50;;;13.00;99.90;;;;;;4444001;32;20053;-68
2021/12/31 01:28:43;;;;;;;0.50;0.50;;;13.00;99.90;;;;;;4442338;32;20053;-67
2021/12/31 01:31:09;;;;;;;0.50;0.50;;;13.00;99.90;;;;;;4444110;32;20069;-68
2021/12/31 01:33:34;;;;;;;3.40;1.00;;;13.00;99.90;;;;;;4444943;32;20124;-68
2021/12/31 01:36:00;;;;;;;0.55;0.55;;;13.00;99.90;;;;;;4442547;32;20085;-68
2021/12/31 01:38:26;;;;;;;0.50;0.50;;;13.00;99.90;;;;;;4443113;32;20396;-67
2021/12/31 01:40:52;;;;;;;0.52;0.52;;;13.00;99.90;;;;;;4444140;32;20061;-68
2021/12/31 01:43:19;;;;;;;0.70;0.70;;;13.00;99.90;;;;;;4443590;32;20076;-68
2021/12/31 01:45:53;;;;;;;1.10;0.50;;;13.10;99.90;;;;;;4443848;32;20143;-68
2021/12/31 01:50:50;;;;;;;0.47;0.47;;;13.20;99.90;;;;;;4442970;32;20085;-68
2021/12/31 01:53:17;;;;;;;0.50;0.50;;;13.10;99.90;;;;;;4443508;32;20057;-68
2021/12/31 01:55:43;;;;;;;0.50;0.50;;;13.10;99.90;;;;;;4442492;32;20128;-68
2021/12/31 01:58:09;;;;;;;0.75;0.75;;;13.00;99.90;;;;;;4442824;32;20442;-68
2021/12/31 02:00:37;;;;;;;0.40;0.40;;;13.10;99.90;;;;;;4442455;32;20061;-68
2021/12/31 02:03:04;;;;;;;0.50;0.50;;;13.20;99.90;;;;;;4443190;32;20612;-68
2021/12/31 02:05:30;;;;;;;0.40;0.40;;;13.20;99.90;;;;;;4443479;32;20473;-67
2021/12/31 02:07:57;;;;;;;0.52;0.52;;;13.20;99.90;;;;;;4444115;32;20119;-67
2021/12/31 02:10:23;;;;;;;0.40;0.40;;;13.30;99.90;;;;;;4444247;32;20061;-68
2021/12/31 02:12:49;;;;;;;0.40;0.40;;;13.20;99.90;;;;;;4443026;32;20120;-68
2021/12/31 02:15:17;;;;;;;0.50;0.50;;;13.20;99.90;;;;;;4443128;32;20093;-68
2021/12/31 02:17:44;;;;;;;0.47;0.47;;;13.20;99.90;;;;;;4435794;32;20077;-68
2021/12/31 02:20:10;;;;;;;0.43;0.43;;;13.20;99.90;;;;;;4430547;32;20061;-68
2021/12/31 02:22:38;;;;;;;0.60;0.60;;;13.20;99.90;;;;;;4442697;32;20069;-68
2021/12/31 02:25:06;;;;;;;0.40;0.40;;;13.20;99.90;;;;;;4442826;32;20074;-68
2021/12/31 02:27:35;;;;;;;0.60;0.60;;;13.20;99.90;;;;;;4442723;32;20077;-68
2021/12/31 02:30:01;;;;;;;0.50;0.50;;;13.20;99.90;;;;;;4443053;32;20066;-68
2021/12/31 02:32:26;;;;;;;0.50;0.50;;;13.20;99.90;;;;;;4441698;32;20402;-67
2021/12/31 02:34:52;;;;;;;0.40;0.40;;;13.20;99.90;;;;;;4444289;32;20119;-68
2021/12/31 02:37:18;;;;;;;0.50;0.50;;;13.20;99.90;;;;;;4443819;32;20465;-68
2021/12/31 02:39:44;;;;;;;0.45;0.45;;;13.20;99.90;;;;;;4438658;32;20589;-67
2021/12/31 02:42:10;;;;;;;0.40;0.40;;;13.20;99.90;;;;;;4443493;32;20088;-68
2021/12/31 02:44:36;;;;;;;0.70;0.70;;;13.20;99.90;;;;;;4443851;32;20517;-68
2021/12/31 02:47:05;;;;;;;0.40;0.40;;;13.10;99.90;;;;;;4444531;32;20119;-68
2021/12/31 02:49:36;;;;;;;2.08;0.80;;;13.20;99.90;;;;;;4442237;32;20057;-69
2021/12/31 02:52:03;;;;;;;0.40;0.40;;;13.10;99.90;;;;;;4442641;32;20073;-68
2021/12/31 02:54:32;;;;;;;0.70;0.70;;;13.20;99.90;;;;;;4442789;32;20049;-68
2021/12/31 02:56:57;;;;;;;0.62;0.62;;;13.10;99.90;;;;;;4442519;32;20426;-67
2021/12/31 02:59:23;;;;;;;0.70;0.70;;;13.10;99.90;;;;;;4441702;32;20057;-68
2021/12/31 03:01:49;;;;;;;2.90;1.12;;;13.10;99.90;;;;;;4441732;32;20077;-68
2021/12/31 03:04:16;;;;;;;0.50;0.50;;;13.10;99.90;;;;;;4446524;32;20455;-68
2021/12/31 03:06:43;;;;;;;0.40;0.40;;;13.10;99.90;;;;;;4446742;32;20302;-68
2021/12/31 03:09:10;;;;;;;0.70;0.70;;;13.00;99.90;;;;;;4444897;32;20081;-68
2021/12/31 03:11:37;;;;;;;1.67;0.77;;;13.10;99.90;;;;;;4445761;32;20471;-68
2021/12/31 03:14:03;;;;;;;0.60;0.60;;;13.20;99.90;;;;;;4445891;32;20069;-68
2021/12/31 03:16:29;;;;;;;0.80;0.77;;;13.10;99.90;;;;;;4444973;32;20093;-68
2021/12/31 03:18:56;;;;;;;0.77;0.77;;;13.10;99.90;;;;;;4445415;32;20115;-67
2021/12/31 03:21:22;;;;;;;1.70;1.08;;;13.10;99.90;;;;;;4445602;32;20058;-67
2021/12/31 03:23:49;;;;;;;0.40;0.40;;;13.10;99.90;;;;;;4444576;32;20069;-68
2021/12/31 03:26:15;;;;;;;0.60;0.60;;;13.20;99.90;;;;;;4443820;32;20078;-68
2021/12/31 03:28:40;;;;;;;0.30;0.30;;;13.10;99.90;;;;;;4444243;32;20461;-68
2021/12/31 03:31:06;;;;;;;0.62;0.50;;;13.10;99.90;;;;;;4444354;32;20065;-67
2021/12/31 03:33:31;;;;;;;0.60;0.60;;;13.10;99.90;;;;;;4445375;32;20517;-68
2021/12/31 03:35:57;;;;;;;2.08;0.65;;;13.10;99.90;;;;;;4445926;32;20123;-68
2021/12/31 03:38:22;;;;;;;2.03;0.52;;;13.10;99.90;;;;;;4444787;32;20465;-68
2021/12/31 03:40:48;;;;;;;0.80;0.50;;;13.10;99.90;;;;;;4444298;32;20093;-68
2021/12/31 03:43:14;;;;;;;0.40;0.40;;;13.10;99.90;;;;;;4444910;32;20074;-68
2021/12/31 03:45:40;;;;;;;0.40;0.40;;;13.20;99.90;;;;;;4444344;32;20073;-68
2021/12/31 03:48:06;;;;;;;0.93;0.73;;;13.10;99.90;;;;;;4444470;32;20115;-67
2021/12/31 03:50:32;;;;;;;0.55;0.55;;;13.10;99.90;;;;;;4444970;32;20449;-68
2021/12/31 03:52:57;;;;;;;0.55;0.55;;;13.10;99.90;;;;;;4445328;32;20509;-68
2021/12/31 03:55:23;;;;;;;0.57;0.57;;;13.10;99.90;;;;;;4444573;32;20124;-67
2021/12/31 03:57:48;;;;;;;0.75;0.50;;;13.10;99.90;;;;;;4444356;32;20120;-67
2021/12/31 04:00:14;;;;;;;0.40;0.40;;;13.00;99.90;;;;;;4445543;32;20465;-68
2021/12/31 04:02:40;;;;;;;1.55;0.68;;;13.10;99.90;;;;;;4445114;32;20057;-69
2021/12/31 04:05:06;;;;;;;0.73;0.73;;;13.10;99.90;;;;;;4445305;32;20065;-68
2021/12/31 04:07:31;;;;;;;0.47;0.47;;;13.00;99.90;;;;;;4444429;32;20119;-68
2021/12/31 04:09:57;;;;;;;0.45;0.45;;;13.00;99.90;;;;;;4444924;32;20501;-68
2021/12/31 04:12:22;;;;;;;0.50;0.50;;;13.00;99.90;;;;;;4446250;32;20096;-68
2021/12/31 04:14:48;;;;;;;0.70;0.70;;;13.00;99.90;;;;;;4444605;32;20480;-68
2021/12/31 04:17:13;;;;;;;0.37;0.37;;;13.00;99.90;;;;;;4444194;32;20539;-68
2021/12/31 04:19:40;;;;;;;0.82;0.52;;;13.00;99.90;;;;;;4440498;32;20111;-67
2021/12/31 04:22:08;;;;;;;0.52;0.52;;;13.00;99.90;;;;;;4444398;32;20085;-67
2021/12/31 04:24:52;;;;;;;0.45;0.45;;;13.00;99.90;;;;;;4444966;32;20074;-68
2021/12/31 04:27:19;;;;;;;0.50;0.50;;;13.00;99.90;;;;;;4444978;32;20126;-68
2021/12/31 04:29:50;;;;;;;0.50;0.50;;;13.00;99.90;;;;;;4444962;32;20065;-68
2021/12/31 04:32:17;;;;;;;0.50;0.47;;;12.90;99.90;;;;;;4441093;32;108104;-67
2021/12/31 04:34:43;;;;;;;0.40;0.40;;;12.90;99.90;;;;;;4443957;32;20053;-68
2021/12/31 04:37:08;;;;;;;0.50;0.50;;;12.90;99.90;;;;;;4443959;32;20089;-68
2021/12/31 04:39:34;;;;;;;0.50;0.50;;;12.90;99.90;;;;;;4437418;32;20065;-68
2021/12/31 04:41:59;;;;;;;0.77;0.77;;;12.90;99.90;;;;;;4438491;32;20053;-68
2021/12/31 04:44:25;;;;;;;0.40;0.40;;;12.90;99.90;;;;;;4443125;32;20101;-68
2021/12/31 04:46:51;;;;;;;0.62;0.62;;;13.00;99.90;;;;;;4444932;32;20186;-67
2021/12/31 04:49:16;;;;;;;0.47;0.47;;;12.90;99.90;;;;;;4443328;32;20420;-67
2021/12/31 04:51:42;;;;;;;0.43;0.43;;;13.00;99.90;;;;;;4444016;32;20414;-68
2021/12/31 04:54:14;;;;;;;0.50;0.50;;;13.00;99.90;;;;;;4444119;32;20085;-68
2021/12/31 04:56:39;;;;;;;3.58;1.67;;;13.00;99.90;;;;;;4444767;32;20081;-67
2021/12/31 04:59:05;;;;;;;0.40;0.40;;;13.00;99.90;;;;;;4444528;32;20061;-68
2021/12/31 05:01:30;;;;;;;0.50;0.50;;;13.00;99.90;;;;;;4444089;32;20553;-68
2021/12/31 05:03:56;;;;;;;0.40;0.40;;;13.00;99.90;;;;;;4443509;32;20143;-69
2021/12/31 05:06:21;;;;;;;0.45;0.45;;;13.00;99.90;;;;;;4444254;32;20072;-68
2021/12/31 05:08:47;;;;;;;0.40;0.40;;;13.00;99.90;;;;;;4445269;32;20065;-68
2021/12/31 05:11:12;;;;;;;0.40;0.40;;;13.00;99.90;;;;;;4443442;32;20541;-68
2021/12/31 05:13:38;;;;;;;0.40;0.40;;;13.10;99.90;;;;;;4443258;32;20060;-68
2021/12/31 05:16:06;;;;;;;0.50;0.50;;;13.10;99.90;;;;;;4444978;32;20119;-68
2021/12/31 05:18:31;;;;;;;0.60;0.60;;;13.10;99.90;;;;;;4443372;32;20057;-68
2021/12/31 05:20:57;;;;;;;0.52;0.50;;;13.10;99.90;;;;;;4444133;32;20433;-68
2021/12/31 05:23:22;;;;;;;0.40;0.40;;;13.10;99.90;;;;;;4443308;32;20065;-67
2021/12/31 05:25:48;;;;;;;0.40;0.40;;;13.10;99.90;;;;;;4444035;32;20075;-67
2021/12/31 05:28:14;;;;;;;0.50;0.50;;;13.00;99.90;;;;;;4442964;32;20073;-68
2021/12/31 05:30:39;;;;;;;0.40;0.40;;;13.00;99.90;;;;;;4443945;32;20172;-67
2021/12/31 05:33:05;;;;;;;0.40;0.40;;;13.10;99.90;;;;;;4445011;32;20077;-68
2021/12/31 05:35:30;;;;;;;2.00;0.90;;;13.10;99.90;;;;;;4443964;32;20057;-68
2021/12/31 05:37:57;;;;;;;0.40;0.40;;;13.10;99.90;;;;;;4443441;32;20060;-68
2021/12/31 05:40:23;;;;;;;0.40;0.40;;;13.10;99.90;;;;;;4444991;32;20127;-68
2021/12/31 05:42:48;;;;;;;0.45;0.45;;;13.10;99.90;;;;;;4442952;32;20073;-68
2021/12/31 05:45:14;;;;;;;0.40;0.40;;;13.10;99.90;;;;;;4443983;32;20065;-68
2021/12/31 05:47:39;;;;;;;2.80;1.15;;;13.20;99.90;;;;;;4443544;32;20088;-68
2021/12/31 05:50:08;;;;;;;0.65;0.65;;;13.30;99.90;;;;;;4443313;32;20061;-67
2021/12/31 05:52:34;;;;;;;0.40;0.40;;;13.30;99.90;;;;;;4443848;32;20074;-68
2021/12/31 05:54:59;;;;;;;0.40;0.40;;;13.30;99.90;;;;;;4443942;32;20454;-68
2021/12/31 05:57:25;;;;;;;0.32;0.32;;;13.20;99.90;;;;;;4443133;32;20061;-68
2021/12/31 05:59:50;;;;;;;0.50;0.50;;;13.20;99.90;;;;;;4440464;32;20512;-68
2021/12/31 06:02:16;;;;;;;0.40;0.40;;;13.30;99.90;;;;;;4441779;32;20078;-68
2021/12/31 06:04:41;;;;;;;0.50;0.50;;;13.20;99.90;;;;;;4429282;32;20520;-68
2021/12/31 06:07:07;;;;;;;0.40;0.40;;;13.20;99.90;;;;;;4443639;32;20135;-67
2021/12/31 06:09:34;;;;;;;0.70;0.70;;;13.20;99.90;;;;;;4442530;32;20068;-68
2021/12/31 06:12:00;;;;;;;0.60;0.60;;;13.20;99.90;;;;;;4441850;32;20529;-68
2021/12/31 06:14:25;;;;;;;0.50;0.50;;;13.20;99.90;;;;;;4443683;32;20166;-67
2021/12/31 06:16:51;;;;;;;0.57;0.57;;;13.20;99.90;;;;;;4443394;32;20120;-67
2021/12/31 06:19:17;;;;;;;0.50;0.50;;;13.20;99.90;;;;;;4442182;32;20069;-68
2021/12/31 06:21:43;;;;;;;0.40;0.40;;;13.20;99.90;;;;;;4443646;32;20060;-67
2021/12/31 06:24:09;;;;;;;0.40;0.40;;;13.20;99.90;;;;;;4443701;32;20124;-68
2021/12/31 06:26:36;;;;;;;0.50;0.50;;;13.20;99.90;;;;;;4443034;32;20061;-68
2021/12/31 06:29:03;;;;;;;0.50;0.50;;;13.20;99.90;;;;;;4442724;32;20065;-67
2021/12/31 06:31:29;;;;;;;0.50;0.50;;;13.30;99.90;;;;;;4442256;32;20111;-67
2021/12/31 06:33:54;;;;;;;0.40;0.40;;;13.30;99.90;;;;;;4443378;32;20072;-67
2021/12/31 06:36:21;;;;;;;0.40;0.40;;;13.20;99.90;;;;;;4444772;32;20073;-68
2021/12/31 06:38:47;;;;;;;0.93;0.55;;;13.20;99.90;;;;;;4444958;32;20061;-67
2021/12/31 06:41:14;;;;;;;0.50;0.50;;;13.20;99.90;;;;;;4447323;32;20438;-68
2021/12/31 06:43:39;;;;;;;0.40;0.40;;;13.20;99.90;;;;;;4444978;32;20200;-68
2021/12/31 06:46:05;;;;;;;0.50;0.50;;;13.20;99.90;;;;;;4445808;32;20206;-68
2021/12/31 06:48:30;;;;;;;0.40;0.40;;;13.10;99.90;;;;;;4446110;32;20060;-68
2021/12/31 06:50:56;;;;;;;0.43;0.43;;;13.10;99.90;;;;;;4446300;32;20589;-67
2021/12/31 06:53:21;;;;;;;0.40;0.40;;;13.20;99.90;;;;;;4446132;32;20081;-67
2021/12/31 06:55:47;;;;;;;0.40;0.40;;;13.20;99.90;;;;;;4438842;32;20088;-67
2021/12/31 06:58:12;;;;;;;0.40;0.40;;;13.20;99.90;;;;;;4443841;32;20119;-67
2021/12/31 07:00:38;;;;;;;0.50;0.50;;;13.20;99.90;;;;;;4445172;32;20053;-68
2021/12/31 07:03:05;;;;;;;0.50;0.50;;;13.20;99.90;;;;;;4445886;32;20393;-67
2021/12/31 07:05:30;;;;;;;0.50;0.50;;;13.20;99.90;;;;;;4446293;32;20065;-67
2021/12/31 07:07:56;;;;;;;0.50;0.50;;;13.20;99.90;;;;;;4445008;32;20077;-68
2021/12/31 07:10:21;;;;;;;0.70;0.70;;;13.20;99.90;;;;;;4445598;32;20060;-68
2021/12/31 07:12:47;;;;;;;0.40;0.40;;;13.20;99.90;;;;;;4445321;32;20069;-67
2021/12/31 07:15:12;;;;;;;0.90;0.73;;;13.20;99.90;;;;;;4445285;32;20378;-68
2021/12/31 07:17:38;;;;;;;0.62;0.62;;;13.10;99.90;;;;;;4445457;32;20545;-68
2021/12/31 07:20:04;;;;;;;0.40;0.40;;;13.10;99.90;;;;;;4445280;32;20113;-67
2021/12/31 07:22:32;;;;;;;0.73;0.73;;;13.10;99.90;;;;;;4446282;32;20068;-68
2021/12/31 07:24:57;;;;;;;0.40;0.40;;;13.10;99.90;;;;;;4446583;32;20585;-68
2021/12/31 07:27:23;;;;;;;0.57;0.57;;;13.10;99.90;;;;;;4445001;32;20119;-67
2021/12/31 07:29:48;;;;;;;0.40;0.40;;;13.20;99.90;;;;;;4445416;32;20542;-67
2021/12/31 07:32:14;;;;;;;1.65;1.10;;;13.20;99.90;;;;;;4445088;32;20065;-68
2021/12/31 07:34:39;;;;;;;0.90;0.88;;;13.20;99.90;;;;;;4445505;32;20171;-68
2021/12/31 07:37:05;;;;;;;0.50;0.50;;;13.20;99.90;;;;;;4446459;32;20406;-68
2021/12/31 07:39:32;;;;;;;0.50;0.50;;;13.20;99.90;;;;;;4445319;32;20073;-68
2021/12/31 07:41:58;;;;;;;0.95;0.50;;;13.20;99.90;;;;;;4445438;32;20541;-67
2021/12/31 07:44:23;;;;;;;0.50;0.50;;;13.20;99.90;;;;;;4444657;32;20073;-67
2021/12/31 07:46:49;;;;;;;0.50;0.50;;;13.20;99.90;;;;;;4443758;32;20543;-68
2021/12/31 07:49:14;;;;;;;0.32;0.32;;;13.30;99.90;;;;;;4443278;32;20173;-67
2021/12/31 07:51:40;;;;;;;0.95;0.55;;;13.30;99.90;;;;;;4444829;32;20085;-68
2021/12/31 07:54:05;;;;;;;0.50;0.50;;;13.20;99.90;;;;;;4445862;32;20408;-68
2021/12/31 07:56:31;;;;;;;0.50;0.50;;;13.30;99.90;;;;;;4445524;32;20331;-68
2021/12/31 07:58:57;;;;;;;0.95;0.85;;;13.30;99.90;;;;;;4444648;32;20073;-68
2021/12/31 08:01:22;;;;;;;0.40;0.40;;;13.30;99.90;;;;;;4445198;32;20412;-67
2021/12/31 08:03:48;;;;;;;0.40;0.40;;;13.30;99.90;;;;;;4445125;32;20117;-67
2021/12/31 08:06:13;;;;;;;0.60;0.60;;;13.30;99.90;;;;;;4445613;32;20069;-68
2021/12/31 08:08:39;;;;;;;0.47;0.47;;;13.30;99.90;;;;;;4445406;32;20081;-68
2021/12/31 08:11:04;;;;;;;3.65;1.08;;;13.30;99.90;;;;;;4445264;32;20076;-68
2021/12/31 08:13:30;;;;;;;0.40;0.40;;;13.30;99.90;;;;;;4444232;32;20061;-68
2021/12/31 08:15:55;;;;;;;0.75;0.75;;;13.30;99.90;;;;;;4444610;32;20500;-67
2021/12/31 08:18:21;;;;;;;0.57;0.57;;;13.30;99.90;;;;;;4443309;32;20070;-68
2021/12/31 08:20:47;;;;;;;0.40;0.40;;;13.40;99.90;;;;;;4444754;32;20065;-68
2021/12/31 08:23:13;;;;;;;0.50;0.50;;;13.40;99.90;;;;;;4446034;32;20078;-67
2021/12/31 08:25:40;;;;;;;0.65;0.60;;;13.40;99.90;;;;;;4445227;32;20118;-67
2021/12/31 08:28:05;;;;;;;0.40;0.40;;;13.40;99.90;;;;;;4443168;32;20069;-67
2021/12/31 08:30:31;;;;;;;0.50;0.50;;;13.40;99.90;;;;;;4444083;32;20486;-68
2021/12/31 08:32:57;;;;;;;0.50;0.50;;;13.40;99.90;;;;;;4444304;32;20458;-68
2021/12/31 08:35:24;;;;;;;0.50;0.50;;;13.40;99.90;;;;;;4444819;32;20069;-68
2021/12/31 08:37:50;;;;;;;0.40;0.40;;;13.40;99.90;;;;;;4443964;32;20069;-67
2021/12/31 08:40:15;;;;;;;0.40;0.40;;;13.50;99.90;;;;;;4444446;32;20110;-68
2021/12/31 08:42:41;;;;;;;0.50;0.50;;;13.50;99.90;;;;;;4443655;32;20061;-68
2021/12/31 08:45:07;;;;;;;16.15;0.60;;;13.50;99.90;;;;;;4443655;32;20061;-68
2021/12/31 08:47:33;;;;;;;0.50;0.50;;;13.40;99.90;;;;;;4444199;32;20073;-68
2021/12/31 08:49:58;;;;;;;0.43;0.40;;;13.40;99.90;;;;;;4443638;32;20532;-67
2021/12/31 08:52:24;;;;;;;0.50;0.50;;;13.40;99.90;;;;;;4444274;32;20107;-68
2021/12/31 08:54:49;;;;;;;0.50;0.50;;;13.50;99.90;;;;;;4442006;32;20101;-67
2021/12/31 08:57:15;;;;;;;0.50;0.50;;;13.40;99.90;;;;;;4443783;32;20083;-67
2021/12/31 08:59:41;;;;;;;0.50;0.50;;;13.50;99.90;;;;;;4443439;32;20060;-67
2021/12/31 09:02:07;;;;;;;0.80;0.80;;;13.50;99.90;;;;;;4443396;32;20078;-68
2021/12/31 09:04:33;;;;;;;0.57;0.57;;;13.50;99.90;;;;;;4444447;32;20069;-67
2021/12/31 09:06:58;;;;;;;0.50;0.50;;;13.50;99.90;;;;;;4440329;32;20077;-68
2021/12/31 09:09:24;;;;;;;0.60;0.60;;;13.50;99.90;;;;;;4444764;32;20064;-68
2021/12/31 09:11:50;;;;;;;0.40;0.40;;;13.40;99.90;;;;;;4444142;32;20355;-68
2021/12/31 09:14:15;;;;;;;0.40;0.40;;;13.50;99.90;;;;;;4444044;32;20442;-68
2021/12/31 09:16:45;;;;;;;0.40;0.40;;;13.50;99.90;;;;;;4443669;32;20057;-67
2021/12/31 09:19:11;;;;;;;0.40;0.40;;;13.40;99.90;;;;;;4443764;32;20127;-68
2021/12/31 09:21:37;;;;;;;0.40;0.40;;;13.50;99.90;;;;;;4439672;32;20568;-68
2021/12/31 09:24:02;;;;;;;0.65;0.65;;;13.50;99.90;;;;;;4444478;32;20061;-68
2021/12/31 09:26:28;;;;;;;0.40;0.40;;;13.60;99.90;;;;;;4443583;32;20065;-68
2021/12/31 09:28:53;;;;;;;0.47;0.47;;;13.60;99.90;;;;;;4442588;32;20068;-68
2021/12/31 09:31:19;;;;;;;0.45;0.45;;;13.50;99.90;;;;;;4443299;32;20057;-68
2021/12/31 09:33:44;;;;;;;0.40;0.40;;;13.50;99.90;;;;;;4443476;32;20065;-68
2021/12/31 09:36:10;;;;;;;0.50;0.50;;;13.50;99.90;;;;;;4444045;32;20078;-68
2021/12/31 09:38:35;;;;;;;0.50;0.50;;;13.50;99.90;;;;;;4442255;32;20072;-68
2021/12/31 09:41:01;;;;;;;0.40;0.40;;;13.60;99.90;;;;;;4443873;32;20077;-68
2021/12/31 09:43:26;;;;;;;0.47;0.47;;;13.50;99.90;;;;;;4443330;32;20164;-68
2021/12/31 09:45:53;;;;;;;0.40;0.40;;;13.50;99.90;;;;;;4443429;32;20444;-68
2021/12/31 09:48:21;;;;;;;3.70;0.50;;;13.50;99.90;;;;;;4443524;32;20088;-67
2021/12/31 09:50:49;;;;;;;0.40;0.40;;;13.40;99.90;;;;;;4444714;32;20065;-68
2021/12/31 09:53:16;;;;;;;0.50;0.50;;;13.40;99.90;;;;;;4444817;32;20486;-68
2021/12/31 09:55:45;;;;;;;0.40;0.40;;;13.40;99.90;;;;;;4443636;32;20080;-67
2021/12/31 09:58:12;;;;;;;0.50;0.50;;;13.30;99.90;;;;;;4442951;32;20061;-68
2021/12/31 10:00:42;;;;;;;0.50;0.50;;;13.30;99.90;;;;;;4442881;32;20125;-67
2021/12/31 10:03:13;;;;;;;1.70;0.60;;;13.30;99.90;;;;;;4442881;32;20115;-67
2021/12/31 10:05:42;;;;;;;0.40;0.40;;;13.30;99.90;;;;;;4443858;32;20069;-67
2021/12/31 10:08:26;;;;;;;0.40;0.40;;;13.30;99.90;;;;;;4440939;32;20069;-68
2021/12/31 10:11:13;;;;;;;0.50;0.50;;;13.20;99.90;;;;;;4426828;32;20427;-68
2021/12/31 10:13:41;;;;;;;0.50;0.50;;;13.20;99.90;;;;;;4416613;32;20507;-68
2021/12/31 10:16:19;;;;;;;0.45;0.45;;;13.30;99.90;;;;;;4442613;32;20073;-68
2021/12/31 10:18:44;;;;;;;0.50;0.50;;;13.20;99.90;;;;;;4442138;32;20115;-68
2021/12/31 10:21:10;;;;;;;4.18;0.82;;;13.30;99.90;;;;;;4443001;32;20077;-68
2021/12/31 10:23:38;;;;;;;0.45;0.45;;;13.30;99.90;;;;;;4434377;32;20061;-68
2021/12/31 10:26:14;;;;;;;0.40;0.40;;;13.20;99.90;;;;;;4444477;32;20180;-68
2021/12/31 10:28:57;;;;;;;0.45;0.45;;;13.20;99.90;;;;;;4442922;32;20517;-68
2021/12/31 10:31:23;;;;;;;0.30;0.30;;;13.30;99.90;;;;;;4442063;32;20674;-68
2021/12/31 10:33:50;;;;;;;0.40;0.40;;;13.30;99.90;;;;;;4442804;32;20077;-68
2021/12/31 10:36:33;;;;;;;0.40;0.40;;;13.30;99.90;;;;;;4443077;32;20135;-67
2021/12/31 10:39:02;;;;;;;0.40;0.40;;;13.20;99.90;;;;;;4439176;32;20054;-69
2021/12/31 10:41:28;;;;;;;1.12;1.02;;;13.20;99.90;;;;;;4433682;32;20090;-68
2021/12/31 10:43:59;;;;;;;0.50;0.50;;;13.20;99.90;;;;;;4441892;32;20458;-67
2021/12/31 10:46:25;;;;;;;0.47;0.47;;;13.20;99.90;;;;;;4443934;32;20489;-68
2021/12/31 10:48:54;;;;;;;0.40;0.40;;;13.20;99.90;;;;;;4442543;32;20054;-68
2021/12/31 10:51:41;;;;;;;0.40;0.40;;;13.30;99.90;;;;;;4442123;32;20516;-68
2021/12/31 10:54:30;;;;;;;0.30;0.30;;;13.30;99.90;;;;;;4426541;32;20058;-68
2021/12/31 10:56:57;;;;;;;1.58;0.70;;;13.20;99.90;;;;;;4430088;32;20109;-68
2021/12/31 10:59:23;;;;;;;0.40;0.40;;;13.20;99.90;;;;;;4441731;32;20065;-67
2021/12/31 11:01:49;;;;;;;0.40;0.40;;;13.30;99.90;;;;;;4442679;32;20073;-67
2021/12/31 11:04:20;;;;;;;0.50;0.50;;;13.30;99.90;;;;;;4443522;32;20119;-68
2021/12/31 11:06:45;;;;;;;1.95;0.55;;;13.30;99.90;;;;;;4443917;32;20074;-67
2021/12/31 11:09:13;;;;;;;0.50;0.50;;;13.40;99.90;;;;;;4441773;32;20082;-67
2021/12/31 11:11:42;;;;;;;0.40;0.40;;;13.40;99.90;;;;;;4442777;32;20108;-67
2021/12/31 11:14:09;;;;;;;0.50;0.50;;;13.30;99.90;;;;;;4442446;32;20359;-67
2021/12/31 11:16:38;;;;;;;2.72;0.60;;;13.40;99.90;;;;;;4442329;32;20083;-67
2021/12/31 11:19:04;;;;;;;0.40;0.40;;;13.40;99.90;;;;;;4443652;32;20952;-67
2021/12/31 11:21:30;;;;;;;0.40;0.40;;;13.30;99.90;;;;;;4440436;32;20069;-68
2021/12/31 11:24:15;;;;;;;0.55;0.55;;;13.40;99.90;;;;;;4442016;32;20080;-68
2021/12/31 11:26:41;;;;;;;0.40;0.40;;;13.40;99.90;;;;;;4434411;32;20124;-67
2021/12/31 11:29:15;;;;;;;0.40;0.40;;;13.40;99.90;;;;;;4443997;32;20069;-67
2021/12/31 11:31:42;;;;;;;0.40;0.40;;;13.50;99.90;;;;;;4444243;32;20087;-67
2021/12/31 11:34:11;;;;;;;0.40;0.40;;;13.50;99.90;;;;;;4446416;32;20128;-67
2021/12/31 11:36:40;;;;;;;1.02;0.52;;;13.50;99.90;;;;;;4444966;32;20069;-67
2021/12/31 11:39:15;;;;;;;0.50;0.50;;;13.50;99.90;;;;;;4444995;32;20061;-67
2021/12/31 11:41:42;;;;;;;0.40;0.40;;;13.50;99.90;;;;;;4444688;32;20061;-67
2021/12/31 11:44:10;;;;;;;0.40;0.40;;;13.50;99.90;;;;;;4444077;32;20064;-67
2021/12/31 11:46:41;;;;;;;0.35;0.35;;;13.50;99.90;;;;;;4444629;32;20070;-67
2021/12/31 11:49:11;;;;;;;0.47;0.47;;;13.50;99.90;;;;;;4430931;32;20061;-68
2021/12/31 11:51:55;;;;;;;0.40;0.40;;;13.50;99.90;;;;;;4443299;32;20061;-67
2021/12/31 11:54:21;;;;;;;0.52;0.52;;;13.50;99.90;;;;;;4438756;32;20131;-67
2021/12/31 11:56:51;;;;;;;0.45;0.45;;;13.60;99.90;;;;;;4445118;32;20120;-67
2021/12/31 11:59:20;;;;;;;2.25;0.65;;;13.60;99.90;;;;;;4444143;32;20068;-67
2021/12/31 12:01:51;;;;;;;0.55;0.55;;;13.60;99.90;;;;;;4445160;32;20108;-67
2021/12/31 12:04:35;;;;;;;0.40;0.40;;;13.60;99.90;;;;;;4443862;32;20085;-67
2021/12/31 12:07:03;;;;;;;0.30;0.30;;;13.60;99.90;;;;;;4443593;32;20068;-68
2021/12/31 12:09:39;;;;;;;0.52;0.52;;;13.60;99.90;;;;;;4444789;32;20061;-68
2021/12/31 12:12:07;;;;;;;0.30;0.30;;;13.60;99.90;;;;;;4445146;32;20749;-68
2021/12/31 12:14:43;;;;;;;0.47;0.47;;;13.60;99.90;;;;;;4444617;32;20124;-68
2021/12/31 12:17:11;;;;;;;0.40;0.40;;;13.70;99.90;;;;;;4445410;32;20066;-68
2021/12/31 12:19:58;;;;;;;0.40;0.40;;;13.70;99.90;;;;;;4445263;32;20132;-69
2021/12/31 12:22:31;;;;;;;0.50;0.50;;;13.70;99.90;;;;;;4442964;32;20057;-69
2021/12/31 12:24:58;;;;;;;0.50;0.50;;;13.70;99.90;;;;;;4444616;32;20085;-68
2021/12/31 12:27:25;;;;;;;0.50;0.50;;;13.80;99.90;;;;;;4443542;32;20461;-67
2021/12/31 12:29:52;;;;;;;7.07;0.80;;;13.80;99.90;;;;;;4444516;32;20081;-68
2021/12/31 12:32:29;;;;;;;0.45;0.45;;;13.70;99.90;;;;;;4445986;32;20411;-68
2021/12/31 12:34:55;;;;;;;0.30;0.30;;;13.70;99.90;;;;;;4444206;32;20534;-69
2021/12/31 12:37:36;;;;;;;0.40;0.40;;;13.70;99.90;;;;;;4444796;32;20058;-69
2021/12/31 12:40:04;;;;;;;0.40;0.40;;;13.80;99.90;;;;;;4444119;32;20178;-68
2021/12/31 12:42:30;;;;;;;0.40;0.40;;;13.90;99.90;;;;;;4445782;32;20419;-68
2021/12/31 12:45:02;;;;;;;0.70;0.70;;;13.90;99.90;;;;;;4444086;32;20061;-68
2021/12/31 12:47:27;;;;;;;0.32;0.32;;;13.90;99.90;;;;;;4444814;32;20575;-68
2021/12/31 12:49:55;;;;;;;0.50;0.50;;;13.90;99.90;;;;;;4444746;32;20085;-68
2021/12/31 12:52:21;;;;;;;7.28;1.73;;;13.90;99.90;;;;;;4444200;32;20089;-67